Time;durP1;ratioP1;P1;durP2;ratioP2;P2;SDS_P1;SDS_P2;PMS_P1;PMS_P2;Temp;Humidity;BMP_temperature;BMP_pressure;BME280_temperature;BME280_humidity;BME280_pressure;Samples;Min_cycle;Max_cycle;Signal;HPM_P1;HPM_P2
2021/05/03 00:01:56;;;;;;;14.73;8.30;;;10.10;85.70;;;;;;5073451;28;20659;-71
2021/05/03 00:04:22;;;;;;;14.13;8.10;;;10.10;86.00;;;;;;5069832;28;20206;-72
2021/05/03 00:06:48;;;;;;;13.07;7.72;;;10.10;86.30;;;;;;5065731;28;20230;-71
2021/05/03 00:09:15;;;;;;;10.32;7.15;;;10.10;86.50;;;;;;5067252;28;20515;-72
2021/05/03 00:11:42;;;;;;;12.65;7.40;;;10.10;86.60;;;;;;5064900;28;20215;-72
2021/05/03 00:14:09;;;;;;;14.85;7.82;;;10.10;86.50;;;;;;5067937;28;20218;-72
2021/05/03 00:16:35;;;;;;;15.02;7.60;;;10.10;86.60;;;;;;5067585;28;20210;-71
2021/05/03 00:19:01;;;;;;;14.65;7.25;;;10.10;87.50;;;;;;5072263;28;20564;-71
2021/05/03 00:21:28;;;;;;;14.20;7.60;;;10.10;86.90;;;;;;5071775;28;20681;-71
2021/05/03 00:23:54;;;;;;;12.00;7.15;;;10.10;86.90;;;;;;5064009;28;20195;-71
2021/05/03 00:26:20;;;;;;;11.02;7.07;;;10.20;87.00;;;;;;5078578;28;20206;-71
2021/05/03 00:28:48;;;;;;;14.13;7.43;;;10.10;86.90;;;;;;5075885;28;20216;-72
2021/05/03 00:31:14;;;;;;;14.77;7.13;;;10.10;86.90;;;;;;5070537;28;20255;-71
2021/05/03 00:33:40;;;;;;;11.20;7.30;;;10.10;86.90;;;;;;5064322;28;20690;-71
2021/05/03 00:36:07;;;;;;;18.00;7.55;;;10.10;86.90;;;;;;5072471;28;20208;-72
2021/05/03 00:38:33;;;;;;;10.18;7.07;;;10.10;86.80;;;;;;5072154;28;20195;-71
2021/05/03 00:41:00;;;;;;;12.32;7.18;;;10.10;86.80;;;;;;5075226;28;20260;-71
2021/05/03 00:43:28;;;;;;;14.70;7.68;;;10.10;86.80;;;;;;5070040;28;20230;-71
2021/05/03 00:45:55;;;;;;;15.77;8.00;;;10.10;86.80;;;;;;5066240;28;20206;-72
2021/05/03 00:48:22;;;;;;;16.70;7.53;;;10.10;87.70;;;;;;5071395;28;20194;-71
2021/05/03 00:50:49;;;;;;;14.45;8.38;;;10.10;87.10;;;;;;5071777;28;20198;-72
2021/05/03 00:53:15;;;;;;;13.43;8.25;;;10.10;87.30;;;;;;5073524;28;20682;-71
2021/05/03 00:55:42;;;;;;;13.88;8.88;;;10.00;87.30;;;;;;5070817;28;20198;-71
2021/05/03 00:58:09;;;;;;;13.63;9.05;;;10.00;87.40;;;;;;5071150;28;20622;-73
2021/05/03 01:00:38;;;;;;;15.40;10.20;;;9.90;87.60;;;;;;5068214;28;20209;-71
2021/05/03 01:03:06;;;;;;;18.30;10.77;;;9.90;87.80;;;;;;5068900;28;20206;-73
2021/05/03 01:05:35;;;;;;;19.65;11.82;;;9.90;88.00;;;;;;5073348;28;20201;-71
2021/05/03 01:08:02;;;;;;;18.88;12.02;;;9.80;88.20;;;;;;5068888;28;20210;-71
2021/05/03 01:10:30;;;;;;;21.10;12.48;;;9.80;88.50;;;;;;5071135;28;20203;-71
2021/05/03 01:12:57;;;;;;;18.83;13.48;;;9.80;88.60;;;;;;5068249;28;20214;-72
2021/05/03 01:15:24;;;;;;;21.17;13.88;;;9.80;88.60;;;;;;5067363;28;20584;-71
2021/05/03 01:17:56;;;;;;;19.75;14.32;;;9.80;88.60;;;;;;5068270;28;20655;-71
2021/05/03 01:20:25;;;;;;;22.70;15.05;;;9.80;88.60;;;;;;5066881;28;20623;-71
2021/05/03 01:22:55;;;;;;;19.80;14.75;;;9.80;88.70;;;;;;5064170;28;20200;-71
2021/05/03 01:25:22;;;;;;;24.55;15.95;;;9.80;88.80;;;;;;5068238;28;20301;-72
2021/05/03 01:27:49;;;;;;;22.23;15.30;;;9.80;89.00;;;;;;5064803;28;20247;-71
2021/05/03 01:30:16;;;;;;;22.30;16.20;;;9.60;89.00;;;;;;5069227;28;20217;-72
2021/05/03 01:32:43;;;;;;;24.40;15.35;;;9.60;89.30;;;;;;5068498;28;20214;-71
2021/05/03 01:35:13;;;;;;;22.77;16.02;;;9.60;89.70;;;;;;5072573;28;20662;-72
2021/05/03 01:37:39;;;;;;;23.65;15.77;;;9.60;89.90;;;;;;5068769;28;20213;-72
2021/05/03 01:40:08;;;;;;;24.08;15.82;;;9.60;89.90;;;;;;5070445;28;20202;-70
2021/05/03 01:42:35;;;;;;;22.90;15.55;;;9.50;90.00;;;;;;5068233;28;20206;-72
2021/05/03 01:45:03;;;;;;;25.10;16.45;;;9.50;90.00;;;;;;5071242;28;20230;-73
2021/05/03 01:47:31;;;;;;;23.30;15.55;;;9.50;90.10;;;;;;5068142;28;20210;-71
2021/05/03 01:49:57;;;;;;;20.67;14.80;;;9.60;90.20;;;;;;5071375;28;20190;-73
2021/05/03 01:52:24;;;;;;;20.20;15.05;;;9.60;90.10;;;;;;5065576;28;20210;-72
2021/05/03 01:54:52;;;;;;;22.23;15.02;;;9.60;90.40;;;;;;5068155;28;20261;-71
2021/05/03 01:57:20;;;;;;;21.90;14.60;;;9.50;90.00;;;;;;5067064;28;20661;-72
2021/05/03 01:59:47;;;;;;;19.67;14.52;;;9.50;90.00;;;;;;5072620;28;20201;-72
2021/05/03 02:02:14;;;;;;;20.33;14.35;;;9.50;90.00;;;;;;5069565;28;20206;-73
2021/05/03 02:04:40;;;;;;;20.30;14.10;;;9.50;90.00;;;;;;5070127;28;20206;-71
2021/05/03 02:07:07;;;;;;;20.67;14.20;;;9.50;90.00;;;;;;5068714;28;20227;-71
2021/05/03 02:09:33;;;;;;;21.63;14.05;;;9.40;90.00;;;;;;5067763;28;20273;-73
2021/05/03 02:12:00;;;;;;;21.58;13.35;;;9.40;90.10;;;;;;5070084;28;20263;-72
2021/05/03 02:14:27;;;;;;;19.17;14.07;;;9.40;90.20;;;;;;5071838;28;20215;-71
2021/05/03 02:16:53;;;;;;;18.83;13.40;;;9.40;90.20;;;;;;5069155;28;20218;-71
2021/05/03 02:19:20;;;;;;;19.27;13.88;;;9.30;90.30;;;;;;5068223;28;20205;-71
2021/05/03 02:21:46;;;;;;;20.95;13.23;;;9.30;90.30;;;;;;5066256;28;22685;-71
2021/05/03 02:24:12;;;;;;;19.75;12.90;;;9.30;90.40;;;;;;5067307;28;20203;-71
2021/05/03 02:26:39;;;;;;;18.35;13.18;;;9.30;90.50;;;;;;5069977;28;20913;-71
2021/05/03 02:29:05;;;;;;;18.45;12.93;;;9.30;90.50;;;;;;5067254;28;20687;-71
2021/05/03 02:31:32;;;;;;;19.02;14.35;;;9.20;90.50;;;;;;5069014;28;20638;-72
2021/05/03 02:33:59;;;;;;;21.15;14.20;;;9.20;90.60;;;;;;5071770;28;20219;-71
2021/05/03 02:36:25;;;;;;;21.30;13.48;;;9.20;90.70;;;;;;5071768;28;20211;-71
2021/05/03 02:38:52;;;;;;;22.20;13.75;;;9.20;90.80;;;;;;5061292;28;20202;-71
2021/05/03 02:41:18;;;;;;;26.23;14.27;;;9.20;90.90;;;;;;5067102;28;20659;-71
2021/05/03 02:43:44;;;;;;;20.77;14.68;;;9.20;91.00;;;;;;5068168;28;20207;-72
2021/05/03 02:46:11;;;;;;;28.17;15.32;;;9.20;91.10;;;;;;5069294;28;20199;-71
2021/05/03 02:48:38;;;;;;;20.83;15.20;;;9.20;91.10;;;;;;5067641;28;20277;-71
2021/05/03 02:51:05;;;;;;;24.83;15.55;;;9.10;91.20;;;;;;5065970;28;20207;-71
2021/05/03 02:53:31;;;;;;;23.88;15.63;;;9.20;91.30;;;;;;5068405;28;20211;-71
2021/05/03 02:55:58;;;;;;;20.70;15.63;;;9.20;91.40;;;;;;5070492;28;20604;-73
2021/05/03 02:58:24;;;;;;;23.33;16.63;;;9.20;91.50;;;;;;5061825;28;20215;-72
2021/05/03 03:00:51;;;;;;;25.13;16.85;;;9.20;91.60;;;;;;5064810;28;20198;-71
2021/05/03 03:03:17;;;;;;;22.98;15.80;;;9.20;91.70;;;;;;5058789;28;20199;-71
2021/05/03 03:05:44;;;;;;;26.40;18.50;;;9.20;91.90;;;;;;5063106;28;20280;-72
2021/05/03 03:08:10;;;;;;;25.50;18.27;;;9.20;92.00;;;;;;5064536;28;20670;-71
2021/05/03 03:10:37;;;;;;;30.05;19.63;;;9.20;92.10;;;;;;5074866;28;20206;-71
2021/05/03 03:13:04;;;;;;;30.80;19.38;;;9.30;92.20;;;;;;5071800;28;20218;-69
2021/05/03 03:15:33;;;;;;;31.50;20.10;;;9.30;92.30;;;;;;5070669;28;20198;-71
2021/05/03 03:18:01;;;;;;;32.90;21.20;;;9.30;92.50;;;;;;5068232;28;20198;-70
2021/05/03 03:20:27;;;;;;;33.35;21.30;;;9.30;92.60;;;;;;5070503;28;20283;-72
2021/05/03 03:22:55;;;;;;;34.03;21.45;;;9.40;92.90;;;;;;5072453;28;20199;-72
2021/05/03 03:25:23;;;;;;;40.05;22.80;;;9.40;93.00;;;;;;5067887;28;20202;-71
2021/05/03 03:27:49;;;;;;;35.58;22.40;;;9.40;93.10;;;;;;5064773;28;20256;-71
2021/05/03 03:30:17;;;;;;;34.50;23.02;;;9.40;93.30;;;;;;5065228;28;20205;-71
2021/05/03 03:32:44;;;;;;;40.58;23.90;;;9.50;93.50;;;;;;5066472;28;20238;-72
2021/05/03 03:35:12;;;;;;;38.20;24.17;;;9.50;93.70;;;;;;5075643;28;20591;-71
2021/05/03 03:37:39;;;;;;;42.35;24.95;;;9.50;93.90;;;;;;5068413;28;20211;-73
2021/05/03 03:40:08;;;;;;;39.63;25.13;;;9.50;94.00;;;;;;5070349;28;21043;-71
2021/05/03 03:42:34;;;;;;;44.92;27.58;;;9.50;94.10;;;;;;5070103;28;20202;-69
2021/05/03 03:45:01;;;;;;;41.83;26.75;;;9.50;94.30;;;;;;5066300;28;20256;-71
2021/05/03 03:47:27;;;;;;;46.15;27.38;;;9.50;94.50;;;;;;5065556;28;20221;-70
2021/05/03 03:49:54;;;;;;;45.92;28.20;;;9.50;94.60;;;;;;5064347;28;20206;-70
2021/05/03 03:52:20;;;;;;;49.47;28.02;;;9.50;94.70;;;;;;5066875;28;20205;-72
2021/05/03 03:54:47;;;;;;;47.03;28.05;;;9.50;94.90;;;;;;5071063;28;20229;-71
2021/05/03 03:57:14;;;;;;;52.55;29.77;;;9.50;95.10;;;;;;5064204;28;20569;-70
2021/05/03 03:59:43;;;;;;;53.25;30.42;;;9.50;95.30;;;;;;5077420;28;22283;-72
2021/05/03 04:02:09;;;;;;;47.53;30.92;;;9.50;95.40;;;;;;5071911;28;20252;-70
2021/05/03 04:04:39;;;;;;;51.30;32.00;;;9.50;95.60;;;;;;5067362;28;20203;-71
2021/05/03 04:07:10;;;;;;;52.58;32.35;;;9.50;95.70;;;;;;5068942;28;20237;-71
2021/05/03 04:09:42;;;;;;;50.92;32.15;;;9.50;95.90;;;;;;5067170;28;20278;-71
2021/05/03 04:12:32;;;;;;;55.22;32.70;;;9.50;96.00;;;;;;5068345;28;20221;-72
2021/05/03 04:25:53;;;;;;;58.00;35.40;;;9.50;96.70;;;;;;5069950;28;20197;-70
2021/05/03 04:28:20;;;;;;;61.17;35.85;;;9.50;96.80;;;;;;5066198;28;20202;-72
2021/05/03 04:30:47;;;;;;;59.40;36.05;;;9.50;96.90;;;;;;5070932;28;20229;-71
2021/05/03 04:33:13;;;;;;;61.67;36.00;;;9.50;97.10;;;;;;5068623;28;20702;-71
2021/05/03 04:35:40;;;;;;;63.30;38.05;;;9.50;97.20;;;;;;5068765;28;20190;-70
2021/05/03 04:38:06;;;;;;;61.03;36.80;;;9.60;97.30;;;;;;5069391;28;20198;-71
2021/05/03 04:40:33;;;;;;;63.78;37.35;;;9.60;97.50;;;;;;5073349;28;20201;-75
2021/05/03 04:42:59;;;;;;;60.35;38.47;;;9.60;97.60;;;;;;5067836;28;20199;-72
2021/05/03 04:45:25;;;;;;;62.13;37.25;;;9.60;97.70;;;;;;5066977;28;20207;-71
2021/05/03 04:47:53;;;;;;;62.65;37.88;;;9.60;97.90;;;;;;5066951;28;20267;-72
2021/05/03 04:50:19;;;;;;;70.35;37.90;;;9.60;98.00;;;;;;5068172;28;20207;-72
2021/05/03 04:52:45;;;;;;;60.20;37.28;;;9.60;98.10;;;;;;5071065;28;20215;-73
2021/05/03 04:55:12;;;;;;;63.67;38.53;;;9.60;98.20;;;;;;5069979;28;20205;-73
2021/05/03 04:57:38;;;;;;;66.22;38.75;;;9.60;98.40;;;;;;5068718;28;20203;-72
2021/05/03 05:00:06;;;;;;;63.22;38.42;;;9.60;98.40;;;;;;5070935;28;20210;-72
2021/05/03 05:02:32;;;;;;;65.72;40.13;;;9.60;98.50;;;;;;5067960;28;20206;-73
2021/05/03 05:05:01;;;;;;;66.50;39.60;;;9.60;98.60;;;;;;5068059;28;20203;-72
2021/05/03 05:07:29;;;;;;;60.80;37.80;;;9.60;98.70;;;;;;5059082;28;20226;-71
2021/05/03 05:09:56;;;;;;;59.95;38.40;;;9.60;98.70;;;;;;5067381;28;20202;-73
2021/05/03 05:12:23;;;;;;;65.82;38.80;;;9.60;98.80;;;;;;5062643;28;20201;-72
2021/05/03 05:14:49;;;;;;;63.88;39.90;;;9.60;98.90;;;;;;5070668;28;20223;-71
2021/05/03 05:17:15;;;;;;;69.93;39.53;;;9.60;98.90;;;;;;5064247;28;20566;-70
2021/05/03 05:19:42;;;;;;;66.85;39.40;;;9.60;99.00;;;;;;5065259;28;20245;-70
2021/05/03 05:22:12;;;;;;;65.85;38.97;;;9.60;99.10;;;;;;5068408;28;20199;-71
2021/05/03 05:24:39;;;;;;;64.25;40.42;;;9.70;99.20;;;;;;5062684;28;20207;-72
2021/05/03 05:27:06;;;;;;;71.03;41.92;;;9.60;99.20;;;;;;5068685;28;20564;-71
2021/05/03 05:29:33;;;;;;;68.72;41.58;;;9.70;99.30;;;;;;5068381;28;20682;-72
2021/05/03 05:31:59;;;;;;;75.30;40.60;;;9.70;99.30;;;;;;5067964;28;20198;-72
2021/05/03 05:34:26;;;;;;;65.10;41.03;;;9.70;99.40;;;;;;5069931;28;20224;-71
2021/05/03 05:36:52;;;;;;;70.47;41.78;;;9.70;99.50;;;;;;5074378;28;20561;-71
2021/05/03 05:39:19;;;;;;;67.40;41.63;;;9.70;99.50;;;;;;5073853;28;20205;-73
2021/05/03 05:41:46;;;;;;;71.72;42.05;;;9.70;99.60;;;;;;5069888;28;20211;-74
2021/05/03 05:44:12;;;;;;;74.90;43.80;;;9.70;99.60;;;;;;5064390;28;20241;-73
2021/05/03 05:46:39;;;;;;;64.07;41.22;;;9.80;99.70;;;;;;5070522;28;20204;-71
2021/05/03 05:49:07;;;;;;;73.85;43.75;;;9.80;99.70;;;;;;5071250;28;20234;-72
2021/05/03 05:51:34;;;;;;;77.60;43.90;;;9.80;99.80;;;;;;5067949;28;20635;-71
2021/05/03 05:54:00;;;;;;;69.15;42.80;;;9.80;99.80;;;;;;5067784;28;20229;-71
2021/05/03 05:56:28;;;;;;;71.68;43.75;;;9.80;99.80;;;;;;5068301;28;20205;-76
2021/05/03 05:58:54;;;;;;;71.80;42.70;;;9.80;99.90;;;;;;5070546;28;20578;-72
2021/05/03 06:01:21;;;;;;;68.10;43.40;;;9.80;99.90;;;;;;5061880;28;20210;-72
2021/05/03 06:03:48;;;;;;;71.10;44.17;;;9.90;99.90;;;;;;5071741;28;20207;-72
2021/05/03 06:06:14;;;;;;;75.93;43.63;;;9.90;99.90;;;;;;5067647;28;20222;-72
2021/05/03 06:08:41;;;;;;;77.75;42.42;;;9.90;99.90;;;;;;5069340;28;20206;-72
2021/05/03 06:11:07;;;;;;;69.53;42.75;;;9.90;99.90;;;;;;5076944;28;20257;-72
2021/05/03 06:13:35;;;;;;;71.70;43.47;;;9.90;99.90;;;;;;5074453;28;20218;-72
2021/05/03 06:16:01;;;;;;;73.18;43.10;;;9.90;99.90;;;;;;5075540;28;20197;-72
2021/05/03 06:18:28;;;;;;;69.80;43.40;;;9.90;99.90;;;;;;5069859;28;20205;-71
2021/05/03 06:20:54;;;;;;;65.53;43.33;;;9.90;99.90;;;;;;5073020;28;20193;-72
2021/05/03 06:23:20;;;;;;;76.60;43.72;;;10.00;99.90;;;;;;5074347;28;20193;-72
2021/05/03 06:25:47;;;;;;;72.75;43.22;;;10.00;99.90;;;;;;5072001;28;20698;-70
2021/05/03 06:28:13;;;;;;;71.10;42.20;;;10.00;99.90;;;;;;5069983;28;20199;-71
2021/05/03 06:30:41;;;;;;;73.03;41.67;;;10.00;99.90;;;;;;5072988;28;20243;-70
2021/05/03 06:33:07;;;;;;;69.78;41.05;;;10.10;99.90;;;;;;5075435;28;20679;-71
2021/05/03 06:35:34;;;;;;;61.15;38.50;;;10.10;99.90;;;;;;5071256;28;20599;-71
2021/05/03 06:38:00;;;;;;;61.15;37.78;;;10.10;99.90;;;;;;5069088;28;20667;-71
2021/05/03 06:40:27;;;;;;;59.58;36.80;;;10.20;99.90;;;;;;5070099;28;20202;-71
2021/05/03 06:42:53;;;;;;;58.60;35.22;;;10.20;99.90;;;;;;5075348;28;20277;-72
2021/05/03 06:45:22;;;;;;;56.65;36.30;;;10.20;99.90;;;;;;5071636;28;20195;-72
2021/05/03 06:47:50;;;;;;;63.78;35.63;;;10.30;99.90;;;;;;5070820;28;20604;-71
2021/05/03 06:50:18;;;;;;;53.30;34.70;;;10.30;99.90;;;;;;5062422;28;21007;-72
2021/05/03 06:52:44;;;;;;;56.13;34.05;;;10.30;99.90;;;;;;5071444;28;20202;-72
2021/05/03 06:55:12;;;;;;;52.75;31.83;;;10.30;99.90;;;;;;5074350;28;20655;-74
2021/05/03 06:57:39;;;;;;;58.75;34.00;;;10.30;99.90;;;;;;5069390;28;20554;-72
2021/05/03 07:00:07;;;;;;;54.90;32.80;;;10.30;99.90;;;;;;5072137;28;20202;-71
2021/05/03 07:02:33;;;;;;;59.85;32.42;;;10.40;99.90;;;;;;5068537;28;20720;-70
2021/05/03 07:05:00;;;;;;;57.78;32.45;;;10.40;99.90;;;;;;5075555;28;20236;-71
2021/05/03 07:07:27;;;;;;;53.20;31.63;;;10.40;99.90;;;;;;5074628;28;20230;-70
2021/05/03 07:09:53;;;;;;;53.05;31.65;;;10.40;99.90;;;;;;5072077;28;20641;-73
2021/05/03 07:12:22;;;;;;;54.25;30.13;;;10.50;99.90;;;;;;5067548;28;20206;-71
2021/05/03 07:14:48;;;;;;;47.38;29.58;;;10.50;99.90;;;;;;5067341;28;20223;-74
2021/05/03 07:17:15;;;;;;;47.13;28.58;;;10.50;99.90;;;;;;5067500;28;20725;-72
2021/05/03 07:19:41;;;;;;;50.88;28.77;;;10.50;99.90;;;;;;5071658;28;20225;-72
2021/05/03 07:22:10;;;;;;;52.65;28.73;;;10.50;99.90;;;;;;5068748;28;20236;-72
2021/05/03 07:24:38;;;;;;;48.72;28.85;;;10.60;99.90;;;;;;5063661;28;20570;-73
2021/05/03 07:27:09;;;;;;;50.25;30.27;;;10.60;99.90;;;;;;5066911;28;20282;-71
2021/05/03 07:29:35;;;;;;;48.60;27.55;;;10.70;99.90;;;;;;5066833;28;20205;-73
2021/05/03 07:32:02;;;;;;;48.80;28.40;;;10.70;99.90;;;;;;5064647;28;20293;-73
2021/05/03 07:34:28;;;;;;;45.22;26.95;;;10.80;99.90;;;;;;5065685;28;20714;-72
2021/05/03 07:36:54;;;;;;;49.90;27.13;;;10.80;99.90;;;;;;5066006;28;20256;-72
2021/05/03 07:39:22;;;;;;;48.25;26.20;;;10.90;99.90;;;;;;5066858;28;20206;-71
2021/05/03 07:41:48;;;;;;;45.97;26.80;;;11.00;99.90;;;;;;5065080;28;20202;-73
2021/05/03 07:44:15;;;;;;;42.38;24.73;;;11.00;99.90;;;;;;5066938;28;20673;-71
2021/05/03 07:46:41;;;;;;;50.58;26.08;;;11.00;99.90;;;;;;5069843;28;20279;-73
2021/05/03 07:49:07;;;;;;;47.67;25.27;;;11.10;99.90;;;;;;5061989;28;20679;-73
2021/05/03 07:51:34;;;;;;;55.50;26.25;;;11.10;99.90;;;;;;5066497;28;20289;-72
2021/05/03 07:54:01;;;;;;;41.95;25.92;;;11.10;99.90;;;;;;5066477;28;20711;-72
2021/05/03 07:56:31;;;;;;;47.08;26.73;;;11.10;99.90;;;;;;5062982;28;20211;-70
2021/05/03 07:58:57;;;;;;;49.97;26.92;;;11.10;99.90;;;;;;5063218;28;20248;-73
2021/05/03 08:01:24;;;;;;;46.22;25.88;;;11.10;99.70;;;;;;5065044;28;20349;-72
2021/05/03 08:03:50;;;;;;;40.42;25.42;;;11.10;99.60;;;;;;5068081;28;20214;-71
2021/05/03 08:06:17;;;;;;;41.08;24.58;;;11.20;99.60;;;;;;5066053;28;20243;-71
2021/05/03 08:08:46;;;;;;;40.67;24.50;;;11.20;99.50;;;;;;5065928;28;20640;-70
2021/05/03 08:11:14;;;;;;;40.15;23.77;;;11.20;99.40;;;;;;5066324;28;20202;-72
2021/05/03 08:13:44;;;;;;;41.97;22.48;;;11.30;99.40;;;;;;5066448;28;20287;-71
2021/05/03 08:16:13;;;;;;;37.35;22.23;;;11.30;99.10;;;;;;5069825;28;20209;-71
2021/05/03 08:18:39;;;;;;;38.25;22.67;;;11.30;99.00;;;;;;5066674;28;20207;-70
2021/05/03 08:21:06;;;;;;;32.90;21.60;;;11.40;98.80;;;;;;5070582;28;20259;-72
2021/05/03 08:23:33;;;;;;;35.58;21.83;;;11.40;98.70;;;;;;5065980;28;20203;-72
2021/05/03 08:25:59;;;;;;;39.03;20.98;;;11.40;98.50;;;;;;5067252;28;20206;-70
2021/05/03 08:28:25;;;;;;;38.47;21.00;;;11.50;98.30;;;;;;5070639;28;20236;-71
2021/05/03 08:30:53;;;;;;;33.97;20.25;;;11.50;98.20;;;;;;5073691;28;20572;-71
2021/05/03 08:33:21;;;;;;;39.70;20.88;;;11.50;98.10;;;;;;5069724;28;20274;-71
2021/05/03 08:35:48;;;;;;;31.95;19.20;;;11.60;97.90;;;;;;5073437;28;20201;-72
2021/05/03 08:38:17;;;;;;;33.45;19.95;;;11.60;97.70;;;;;;5072562;28;20217;-72
2021/05/03 08:40:44;;;;;;;36.78;18.95;;;11.70;97.60;;;;;;5065971;28;20615;-72
2021/05/03 08:43:10;;;;;;;32.10;19.80;;;11.70;97.50;;;;;;5070611;28;20203;-71
2021/05/03 08:45:38;;;;;;;34.22;19.25;;;11.80;97.30;;;;;;5065977;28;20571;-71
2021/05/03 08:48:11;;;;;;;30.42;17.88;;;11.70;97.10;;;;;;5066675;28;20209;-71
2021/05/03 08:51:02;;;;;;;28.55;17.95;;;11.80;97.00;;;;;;5064647;28;20210;-72
2021/05/03 08:53:31;;;;;;;43.83;18.50;;;11.80;96.70;;;;;;5067594;28;20301;-68
2021/05/03 08:55:58;;;;;;;32.78;17.40;;;11.80;96.50;;;;;;5068653;28;20558;-71
2021/05/03 08:58:25;;;;;;;27.75;17.27;;;11.90;96.30;;;;;;5075540;28;20204;-70
2021/05/03 09:00:52;;;;;;;29.65;16.67;;;11.90;95.90;;;;;;5069721;28;20206;-70
2021/05/03 09:03:19;;;;;;;31.65;18.48;;;11.90;95.80;;;;;;5067937;28;20427;-70
2021/05/03 09:05:46;;;;;;;26.83;16.90;;;12.20;94.50;;;;;;5066663;28;20415;-71
2021/05/03 09:08:25;;;;;;;24.13;15.07;;;12.50;93.70;;;;;;5067764;28;20523;-69
2021/05/03 09:10:53;;;;;;;27.00;15.57;;;12.70;92.40;;;;;;5066531;28;20786;-72
2021/05/03 09:13:29;;;;;;;32.47;16.50;;;12.90;92.10;;;;;;5068387;28;20430;-71
2021/05/03 09:16:13;;;;;;;24.70;14.05;;;13.00;91.80;;;;;;5067917;28;20423;-72
2021/05/03 09:18:41;;;;;;;28.48;14.73;;;13.10;91.00;;;;;;5075280;28;20428;-72
2021/05/03 09:21:20;;;;;;;25.07;13.53;;;13.20;90.90;;;;;;5065666;28;20457;-72
2021/05/03 09:24:03;;;;;;;23.73;13.60;;;13.30;90.40;;;;;;5075604;28;21008;-71
2021/05/03 09:26:40;;;;;;;25.58;13.60;;;13.40;90.60;;;;;;5067006;28;20424;-70
2021/05/03 09:29:33;;;;;;;23.73;13.50;;;13.50;90.30;;;;;;5072235;28;20489;-70
2021/05/03 09:32:03;;;;;;;20.03;12.93;;;13.50;90.10;;;;;;5068097;28;21976;-72
2021/05/03 09:34:32;;;;;;;34.30;13.77;;;13.50;88.80;;;;;;5067479;28;20434;-70
2021/05/03 09:37:19;;;;;;;24.55;12.60;;;13.50;89.20;;;;;;5065203;28;20427;-71
2021/05/03 09:40:06;;;;;;;21.87;12.77;;;13.50;89.10;;;;;;5063933;28;20427;-71
2021/05/03 09:42:44;;;;;;;20.90;12.30;;;13.60;88.60;;;;;;5061312;28;20824;-72
2021/05/03 09:45:13;;;;;;;21.55;12.65;;;13.60;87.70;;;;;;5068564;28;20980;-71
2021/05/03 09:47:40;;;;;;;30.20;13.20;;;13.60;88.20;;;;;;5066416;28;20784;-71
2021/05/03 09:50:12;;;;;;;22.03;11.70;;;13.60;88.10;;;;;;5073536;28;20514;-71
2021/05/03 09:52:38;;;;;;;18.02;11.25;;;13.70;88.00;;;;;;5080136;28;20432;-71
2021/05/03 09:55:36;;;;;;;19.73;11.90;;;13.70;85.90;;;;;;5070683;28;20419;-71
2021/05/03 09:58:11;;;;;;;24.50;12.50;;;13.70;86.50;;;;;;5068084;28;20780;-71
2021/05/03 10:00:39;;;;;;;22.10;11.80;;;13.80;87.30;;;;;;5069101;28;20474;-72
2021/05/03 10:03:32;;;;;;;16.40;10.73;;;13.80;85.80;;;;;;5071832;28;20431;-71
2021/05/03 10:05:59;;;;;;;23.33;11.50;;;13.90;84.90;;;;;;5067316;28;20434;-75
2021/05/03 10:08:26;;;;;;;19.02;10.77;;;13.90;84.80;;;;;;5068526;28;20434;-73
2021/05/03 10:10:57;;;;;;;19.52;10.52;;;13.90;83.70;;;;;;5070935;28;20431;-73
2021/05/03 10:13:24;;;;;;;19.15;10.35;;;13.90;82.00;;;;;;5074236;28;20894;-71
2021/05/03 10:15:55;;;;;;;16.20;9.85;;;13.90;81.70;;;;;;5066890;28;20421;-71
2021/05/03 10:18:23;;;;;;;19.13;9.32;;;13.90;81.80;;;;;;5066822;28;20893;-73
2021/05/03 10:20:50;;;;;;;20.40;8.90;;;13.90;81.60;;;;;;5070140;28;20838;-71
2021/05/03 10:23:19;;;;;;;18.57;7.50;;;14.00;81.60;;;;;;5065982;28;20779;-71
2021/05/03 10:25:46;;;;;;;15.02;7.50;;;14.00;78.80;;;;;;5066846;28;20472;-73
2021/05/03 10:28:13;;;;;;;13.60;5.68;;;14.20;78.40;;;;;;5067590;28;21061;-72
2021/05/03 10:30:41;;;;;;;11.50;5.60;;;14.30;76.60;;;;;;5073245;28;20431;-72
2021/05/03 10:33:10;;;;;;;10.68;5.60;;;14.30;74.80;;;;;;5073574;28;20419;-71
2021/05/03 10:35:39;;;;;;;9.02;4.75;;;14.30;75.20;;;;;;5073463;28;20486;-77
2021/05/03 10:38:08;;;;;;;13.93;5.85;;;14.40;74.00;;;;;;5070642;28;20507;-72
2021/05/03 10:40:44;;;;;;;12.20;6.20;;;14.30;75.00;;;;;;5073123;28;20478;-73
2021/05/03 10:43:15;;;;;;;11.60;5.80;;;14.30;76.10;;;;;;5070469;28;20460;-73
2021/05/03 10:45:48;;;;;;;16.60;5.40;;;14.30;77.60;;;;;;5062027;28;20431;-73
2021/05/03 10:48:42;;;;;;;11.15;5.63;;;14.30;77.50;;;;;;5065746;28;20763;-72
2021/05/03 10:51:38;;;;;;;12.90;5.88;;;14.40;77.00;;;;;;5062655;28;21060;-72
2021/05/03 10:54:39;;;;;;;27.20;5.78;;;14.40;76.90;;;;;;5064517;28;20437;-72
2021/05/03 10:57:07;;;;;;;19.38;5.65;;;14.40;75.10;;;;;;5024389;28;20492;-73
2021/05/03 10:59:46;;;;;;;20.08;6.15;;;14.40;76.10;;;;;;5073646;28;20422;-75
2021/05/03 11:02:14;;;;;;;19.60;5.75;;;14.50;77.20;;;;;;5069265;28;20788;-72
2021/05/03 11:05:10;;;;;;;21.63;4.85;;;14.40;77.60;;;;;;5069353;28;20769;-72
2021/05/03 11:07:59;;;;;;;11.10;4.72;;;14.40;75.70;;;;;;5069248;28;20489;-73
2021/05/03 11:11:13;;;;;;;11.40;5.07;;;14.40;76.30;;;;;;5064664;28;21003;-73
2021/05/03 11:13:59;;;;;;;28.98;5.55;;;14.40;76.50;;;;;;5003867;28;20443;-71
2021/05/03 11:16:55;;;;;;;8.65;3.88;;;14.40;76.50;;;;;;4987210;28;20528;-72
2021/05/03 11:19:52;;;;;;;15.32;3.75;;;14.40;75.80;;;;;;5049362;28;20972;-70
2021/05/03 11:22:20;;;;;;;8.98;3.70;;;14.40;76.10;;;;;;5064602;28;21017;-71
2021/05/03 11:24:51;;;;;;;8.50;3.33;;;14.40;72.20;;;;;;5070126;28;20427;-71
2021/05/03 11:27:22;;;;;;;9.95;3.65;;;14.40;72.10;;;;;;5065452;28;20423;-70
2021/05/03 11:29:53;;;;;;;10.30;4.03;;;14.40;73.50;;;;;;5068621;28;20745;-70
2021/05/03 11:32:27;;;;;;;9.18;3.97;;;14.30;75.60;;;;;;5068452;28;20531;-71
2021/05/03 11:35:01;;;;;;;11.55;4.32;;;14.40;76.20;;;;;;5071738;28;21009;-71
2021/05/03 11:37:34;;;;;;;13.35;4.60;;;14.40;76.00;;;;;;5077221;28;20430;-73
2021/05/03 11:40:08;;;;;;;12.35;5.13;;;14.40;76.60;;;;;;5072594;28;20428;-73
2021/05/03 11:45:25;;;;;;;21.02;6.30;;;14.50;72.90;;;;;;5065410;28;20853;-73
2021/05/03 11:47:55;;;;;;;17.48;6.97;;;14.50;73.10;;;;;;5071966;28;20915;-73
2021/05/03 11:50:23;;;;;;;15.53;6.23;;;14.60;75.20;;;;;;5068089;28;20423;-72
2021/05/03 11:52:50;;;;;;;13.07;6.25;;;14.60;73.50;;;;;;5073473;28;20445;-71
2021/05/03 11:55:19;;;;;;;19.83;6.70;;;14.60;71.10;;;;;;5073358;28;20902;-72
2021/05/03 11:57:46;;;;;;;11.73;6.28;;;14.60;72.60;;;;;;5067255;28;20494;-73
2021/05/03 12:00:15;;;;;;;11.02;6.50;;;14.70;73.20;;;;;;5072980;28;20792;-71
2021/05/03 12:02:41;;;;;;;14.40;6.80;;;14.70;72.50;;;;;;5069070;28;20429;-71
2021/05/03 12:05:23;;;;;;;17.90;6.35;;;14.70;72.80;;;;;;5068463;28;20431;-71
2021/05/03 12:07:50;;;;;;;18.52;6.85;;;14.80;73.00;;;;;;5068160;28;20501;-72
2021/05/03 12:10:18;;;;;;;14.93;7.30;;;14.90;71.40;;;;;;5066790;28;20546;-73
2021/05/03 12:12:47;;;;;;;10.80;6.15;;;14.90;70.70;;;;;;5064981;28;20431;-72
2021/05/03 12:15:17;;;;;;;18.75;7.15;;;15.00;69.30;;;;;;5064965;28;20990;-71
2021/05/03 12:17:44;;;;;;;13.60;6.93;;;15.00;69.80;;;;;;5066621;28;20433;-71
2021/05/03 12:20:13;;;;;;;10.73;6.10;;;15.10;68.90;;;;;;5068084;28;20436;-73
2021/05/03 12:22:52;;;;;;;12.30;6.10;;;15.10;67.70;;;;;;5066883;28;20428;-70
2021/05/03 12:25:19;;;;;;;14.35;6.15;;;15.20;66.40;;;;;;5068341;28;20950;-71
2021/05/03 12:27:45;;;;;;;11.48;5.68;;;15.20;66.90;;;;;;5071014;28;20435;-73
2021/05/03 12:30:12;;;;;;;17.10;5.07;;;15.30;67.00;;;;;;5067388;28;20424;-74
2021/05/03 12:32:40;;;;;;;11.73;5.05;;;15.40;64.90;;;;;;5067515;28;20478;-70
2021/05/03 12:35:09;;;;;;;11.90;6.40;;;15.50;63.80;;;;;;5067852;28;20424;-70
2021/05/03 12:37:35;;;;;;;14.37;7.50;;;15.50;63.10;;;;;;5072606;28;20777;-72
2021/05/03 12:40:08;;;;;;;17.20;7.90;;;15.50;63.20;;;;;;5068456;28;20447;-69
2021/05/03 12:42:43;;;;;;;15.02;8.20;;;15.60;64.60;;;;;;5065701;28;20431;-72
2021/05/03 12:45:25;;;;;;;13.25;8.55;;;15.60;65.00;;;;;;5068365;28;20453;-70
2021/05/03 12:48:02;;;;;;;36.05;9.57;;;15.70;62.40;;;;;;5069645;28;20198;-70
2021/05/03 12:50:50;;;;;;;25.73;10.32;;;15.50;64.20;;;;;;5069297;28;20543;-70
2021/05/03 12:53:21;;;;;;;17.50;9.77;;;15.30;65.00;;;;;;5067612;28;20285;-71
2021/05/03 12:56:05;;;;;;;15.73;10.13;;;15.30;65.90;;;;;;5072001;28;20199;-72
2021/05/03 12:58:37;;;;;;;21.20;11.27;;;15.20;66.40;;;;;;5066052;28;20224;-71